Time;durP1;ratioP1;P1;durP2;ratioP2;P2;SDS_P1;SDS_P2;PMS_P1;PMS_P2;Temp;Humidity;BMP_temperature;BMP_pressure;BME280_temperature;BME280_humidity;BME280_pressure;Samples;Min_cycle;Max_cycle;Signal;HPM_P1;HPM_P2
2021/10/21 00:00:56;;;;;;;11.87;10.77;;;;;21.40;98055.00;;;;2080897;28;20228;-54
2021/10/21 00:01:56;;;;;;;12.33;11.10;;;;;21.40;98046.00;;;;2087341;28;20759;-55
2021/10/21 00:02:56;;;;;;;13.63;11.07;;;;;21.40;98044.00;;;;2088421;28;22229;-54
2021/10/21 00:03:59;;;;;;;11.80;10.60;;;;;21.40;98029.00;;;;2081256;28;20220;-53
2021/10/21 00:05:00;;;;;;;12.88;11.60;;;;;21.40;98028.00;;;;2079816;28;20225;-53
2021/10/21 00:06:00;;;;;;;11.80;10.57;;;;;21.40;98025.00;;;;2080939;28;20217;-54
2021/10/21 00:07:00;;;;;;;11.87;10.77;;;;;21.40;98007.00;;;;2083162;28;20217;-53
2021/10/21 00:08:01;;;;;;;10.70;9.70;;;;;21.40;98012.00;;;;2081830;28;20231;-53
2021/10/21 00:09:01;;;;;;;11.30;10.20;;;;;21.40;98012.00;;;;2083859;28;20940;-53
2021/10/21 00:10:03;;;;;;;12.40;11.20;;;;;21.40;98006.00;;;;2081952;28;20683;-54
2021/10/21 00:11:04;;;;;;;11.18;10.05;;;;;21.40;98003.00;;;;2081634;28;20233;-53
2021/10/21 00:12:04;;;;;;;10.70;9.70;;;;;21.40;97996.00;;;;2079873;28;20582;-54
2021/10/21 00:13:05;;;;;;;11.20;10.10;;;;;21.40;97991.00;;;;2079576;28;20295;-54
2021/10/21 00:14:05;;;;;;;14.80;12.90;;;;;21.20;97999.00;;;;2079429;28;20643;-53
2021/10/21 00:15:07;;;;;;;18.00;12.63;;;;;21.20;97995.00;;;;2080196;28;20244;-54
2021/10/21 00:16:07;;;;;;;12.60;10.75;;;;;21.20;97994.00;;;;2082639;28;20687;-54
2021/10/21 00:17:08;;;;;;;13.20;9.67;;;;;21.20;97991.00;;;;2086715;28;20217;-53
2021/10/21 00:18:08;;;;;;;11.07;9.97;;;;;21.30;98005.00;;;;2080762;28;20311;-53
2021/10/21 00:19:08;;;;;;;13.20;10.33;;;;;21.40;97987.00;;;;2080248;28;20271;-53
2021/10/21 00:20:09;;;;;;;9.63;8.63;;;;;21.40;97994.00;;;;2080557;28;20244;-54
2021/10/21 00:21:10;;;;;;;11.67;10.47;;;;;21.40;97990.00;;;;2080222;28;20229;-57
2021/10/21 00:22:10;;;;;;;10.80;8.67;;;;;21.40;97992.00;;;;2080658;28;20472;-55
2021/10/21 00:23:10;;;;;;;9.97;8.97;;;;;21.40;98000.00;;;;2081717;28;20228;-53
2021/10/21 00:24:11;;;;;;;13.70;9.67;;;;;21.40;97998.00;;;;2083359;28;20295;-52
2021/10/21 00:25:11;;;;;;;11.83;9.17;;;;;21.40;97998.00;;;;2084552;28;20317;-53
2021/10/21 00:26:12;;;;;;;10.33;8.93;;;;;21.40;98000.00;;;;2082857;28;20586;-53
2021/10/21 00:27:12;;;;;;;11.20;9.10;;;;;21.40;97997.00;;;;2085933;28;20267;-53
2021/10/21 00:28:14;;;;;;;9.57;8.67;;;;;21.40;97997.00;;;;2080698;28;20263;-53
2021/10/21 00:29:15;;;;;;;10.05;9.05;;;;;21.40;98000.00;;;;2080091;28;20237;-53
2021/10/21 00:30:15;;;;;;;10.17;8.67;;;;;21.40;98008.00;;;;2080596;28;20643;-52
2021/10/21 00:31:15;;;;;;;9.50;8.50;;;;;21.40;98000.00;;;;2080592;28;20205;-52
2021/10/21 00:32:16;;;;;;;8.50;7.63;;;;;21.40;97993.00;;;;2086029;28;20209;-54
2021/10/21 00:33:16;;;;;;;11.00;8.60;;;;;21.40;97989.00;;;;2088888;28;20953;-54
2021/10/21 00:34:17;;;;;;;9.93;8.50;;;;;21.40;97987.00;;;;2088809;28;20262;-54
2021/10/21 00:35:18;;;;;;;9.10;8.20;;;;;21.40;97986.00;;;;2085059;28;20220;-53
2021/10/21 00:36:18;;;;;;;9.50;8.50;;;;;21.40;97971.00;;;;2088558;28;20217;-52
2021/10/21 00:37:18;;;;;;;9.50;8.53;;;;;21.40;97965.00;;;;2084928;28;20217;-53
2021/10/21 00:38:19;;;;;;;12.10;9.20;;;;;21.40;97965.00;;;;2083798;28;20225;-52
2021/10/21 00:39:19;;;;;;;9.63;7.80;;;;;21.40;97956.00;;;;2080758;28;20698;-53
2021/10/21 00:40:21;;;;;;;8.80;7.90;;;;;21.40;97958.00;;;;2081744;28;20370;-52
2021/10/21 00:41:22;;;;;;;8.63;7.70;;;;;21.40;97957.00;;;;2084065;28;20744;-53
2021/10/21 00:42:22;;;;;;;9.20;8.30;;;;;21.40;97935.00;;;;2079822;28;20213;-54
2021/10/21 00:43:23;;;;;;;8.50;7.70;;;;;21.40;97939.00;;;;2084497;28;20213;-53
2021/10/21 00:44:24;;;;;;;8.75;7.82;;;;;21.40;97945.00;;;;2084045;28;20218;-53
2021/10/21 00:45:25;;;;;;;8.40;7.57;;;;;21.40;97954.00;;;;2080398;28;20675;-53
2021/10/21 00:46:25;;;;;;;8.90;8.10;;;;;21.40;97943.00;;;;2080529;28;20213;-53
2021/10/21 00:47:26;;;;;;;9.53;7.87;;;;;21.40;97941.00;;;;2084356;28;20217;-53
2021/10/21 00:48:26;;;;;;;8.37;7.50;;;;;21.40;97935.00;;;;2080379;28;20210;-52
2021/10/21 00:49:26;;;;;;;8.87;7.93;;;;;21.40;97939.00;;;;2079142;28;20674;-53
2021/10/21 00:50:27;;;;;;;8.20;7.40;;;;;21.40;97932.00;;;;2080496;28;20205;-53
2021/10/21 00:51:27;;;;;;;8.00;7.27;;;;;21.40;97938.00;;;;2087220;28;20217;-53
2021/10/21 00:52:27;;;;;;;7.90;7.10;;;;;21.40;97943.00;;;;2081655;28;20202;-53
2021/10/21 00:53:28;;;;;;;8.17;7.27;;;;;21.40;97938.00;;;;2084253;28;20297;-53
2021/10/21 00:54:29;;;;;;;7.22;6.53;;;;;21.40;97919.00;;;;2083435;28;20209;-53
2021/10/21 00:55:30;;;;;;;7.57;6.83;;;;;21.40;97918.00;;;;2079711;28;20229;-52
2021/10/21 00:56:31;;;;;;;7.88;7.10;;;;;21.40;97915.00;;;;2076714;28;20228;-52
2021/10/21 00:57:32;;;;;;;7.75;7.05;;;;;21.40;97900.00;;;;2079992;28;20256;-52
2021/10/21 00:58:33;;;;;;;7.47;6.67;;;;;21.40;97913.00;;;;2082243;28;20716;-53
2021/10/21 00:59:33;;;;;;;8.02;6.60;;;;;21.40;97917.00;;;;2079578;28;20225;-53
2021/10/21 01:00:34;;;;;;;8.17;7.37;;;;;21.40;97900.00;;;;2083758;28;20255;-53
2021/10/21 01:01:35;;;;;;;8.47;6.80;;;;;21.40;97882.00;;;;2080957;28;20439;-54
2021/10/21 01:02:36;;;;;;;7.05;6.32;;;;;21.40;97869.00;;;;2087866;28;20264;-53
2021/10/21 01:03:36;;;;;;;7.63;6.83;;;;;21.40;97871.00;;;;2086988;28;20217;-54
2021/10/21 01:04:37;;;;;;;9.50;6.97;;;;;21.40;97869.00;;;;2084485;28;20220;-53
2021/10/21 01:05:38;;;;;;;7.07;6.38;;;;;21.40;97867.00;;;;2080524;28;20687;-52
2021/10/21 01:06:40;;;;;;;6.77;6.10;;;;;21.30;97866.00;;;;2078774;28;20206;-52
2021/10/21 01:07:41;;;;;;;7.57;6.40;;;;;21.40;97846.00;;;;2079659;28;20213;-53
2021/10/21 01:08:41;;;;;;;7.97;6.60;;;;;21.40;97844.00;;;;2080357;28;20297;-53
2021/10/21 01:09:42;;;;;;;7.63;6.83;;;;;21.40;97838.00;;;;2081211;28;20220;-54
2021/10/21 01:10:43;;;;;;;7.72;6.28;;;;;21.40;97825.00;;;;2081749;28;20277;-53
2021/10/21 01:11:43;;;;;;;7.43;6.73;;;;;21.30;97838.00;;;;2083916;28;20216;-53
2021/10/21 01:12:43;;;;;;;6.70;6.00;;;;;21.30;97834.00;;;;2082636;28;20217;-53
2021/10/21 01:13:44;;;;;;;6.60;5.60;;;;;21.40;97821.00;;;;2079519;28;20580;-54
2021/10/21 01:14:45;;;;;;;6.27;5.47;;;;;21.30;97806.00;;;;2080414;28;20205;-53
2021/10/21 01:15:46;;;;;;;7.13;6.05;;;;;21.30;97804.00;;;;2087292;28;20677;-53
2021/10/21 01:16:46;;;;;;;6.17;5.57;;;;;21.30;97816.00;;;;2088659;28;20216;-53
2021/10/21 01:17:47;;;;;;;6.67;6.07;;;;;21.30;97813.00;;;;2080118;28;20213;-53
2021/10/21 01:18:47;;;;;;;6.53;5.93;;;;;21.30;97818.00;;;;2082890;28;20220;-52
2021/10/21 01:19:50;;;;;;;7.20;5.87;;;;;21.30;97813.00;;;;2087926;28;20666;-52
2021/10/21 01:20:50;;;;;;;6.47;5.88;;;;;21.30;97844.00;;;;2084189;28;20889;-53
2021/10/21 01:21:52;;;;;;;6.67;6.00;;;;;21.30;97831.00;;;;2084744;28;20263;-52
2021/10/21 01:22:53;;;;;;;6.40;5.72;;;;;21.30;97814.00;;;;2088444;28;20258;-53
2021/10/21 01:23:53;;;;;;;6.27;5.40;;;;;21.30;97828.00;;;;2088592;28;20743;-52
2021/10/21 01:24:54;;;;;;;5.70;5.20;;;;;21.30;97851.00;;;;2084746;28;20551;-53
2021/10/21 01:25:54;;;;;;;5.50;5.00;;;;;21.30;97859.00;;;;2078526;28;20201;-53
2021/10/21 01:26:55;;;;;;;6.03;5.10;;;;;21.30;97837.00;;;;2080651;28;20213;-52
2021/10/21 01:27:55;;;;;;;5.70;5.10;;;;;21.30;97826.00;;;;2088525;28;20209;-52
2021/10/21 01:28:55;;;;;;;6.57;5.00;;;;;21.30;97824.00;;;;2082742;28;20210;-52
2021/10/21 01:29:56;;;;;;;5.77;5.20;;;;;21.30;97832.00;;;;2080104;28;20276;-52
2021/10/21 01:30:56;;;;;;;5.73;5.20;;;;;21.30;97824.00;;;;2086384;28;20209;-53
2021/10/21 01:31:57;;;;;;;5.60;5.07;;;;;21.30;97823.00;;;;2084134;28;20208;-53
2021/10/21 01:32:58;;;;;;;5.07;4.65;;;;;21.30;97832.00;;;;2079998;28;20312;-52
2021/10/21 01:33:58;;;;;;;7.10;5.13;;;;;21.30;97824.00;;;;2080276;28;20736;-54
2021/10/21 01:34:58;;;;;;;4.57;3.60;;;;;21.30;97818.00;;;;2080178;28;20210;-53
2021/10/21 01:35:59;;;;;;;8.00;4.03;;;;;21.30;97833.00;;;;2080191;28;20212;-53
2021/10/21 01:37:00;;;;;;;5.07;3.63;;;;;21.30;97835.00;;;;2080110;28;20218;-54
2021/10/21 01:38:01;;;;;;;5.35;3.97;;;;;21.30;97840.00;;;;2080294;28;20235;-54
2021/10/21 01:39:05;;;;;;;6.27;3.90;;;;;21.20;97831.00;;;;2080439;28;20236;-53
2021/10/21 01:40:10;;;;;;;5.25;3.70;;;;;21.20;97821.00;;;;2080064;28;20307;-55
2021/10/21 01:41:10;;;;;;;5.35;3.63;;;;;21.20;97832.00;;;;2080322;28;20720;-53
2021/10/21 01:42:11;;;;;;;5.87;3.50;;;;;21.20;97844.00;;;;2084943;28;20335;-53
2021/10/21 01:43:14;;;;;;;5.30;3.40;;;;;21.20;97838.00;;;;2088300;28;20223;-54
2021/10/21 01:44:15;;;;;;;6.30;3.60;;;;;21.20;97839.00;;;;2088166;28;20874;-53
2021/10/21 01:45:24;;;;;;;5.60;3.70;;;;;21.20;97854.00;;;;2085179;28;20225;-53
2021/10/21 01:46:24;;;;;;;5.10;3.20;;;;;21.20;97827.00;;;;2084043;28;20208;-54
2021/10/21 01:47:24;;;;;;;7.57;3.33;;;;;21.20;97829.00;;;;2087095;28;20864;-52
2021/10/21 01:48:25;;;;;;;3.87;3.23;;;;;21.20;97839.00;;;;2081509;28;20698;-54
2021/10/21 01:49:25;;;;;;;3.60;2.90;;;;;21.20;97832.00;;;;2087902;28;20628;-53
2021/10/21 01:50:27;;;;;;;6.77;3.33;;;;;21.20;97828.00;;;;2081710;28;20356;-52
2021/10/21 01:51:27;;;;;;;7.30;3.40;;;;;21.20;97843.00;;;;2079250;28;20213;-53
2021/10/21 01:52:27;;;;;;;4.40;3.23;;;;;21.20;97829.00;;;;2082847;28;20215;-53
2021/10/21 01:53:28;;;;;;;6.60;3.10;;;;;21.10;97835.00;;;;2088278;28;20224;-53
2021/10/21 01:54:28;;;;;;;4.30;2.83;;;;;21.20;97838.00;;;;2084342;28;20217;-54
2021/10/21 01:55:28;;;;;;;3.13;2.73;;;;;21.10;97834.00;;;;2087399;28;20773;-55
2021/10/21 01:56:29;;;;;;;2.60;2.40;;;;;21.20;97827.00;;;;2080011;28;20586;-53
2021/10/21 01:57:29;;;;;;;3.27;2.77;;;;;21.10;97820.00;;;;2081739;28;20213;-53
2021/10/21 01:58:30;;;;;;;4.00;2.70;;;;;21.10;97815.00;;;;2086065;28;20209;-52
2021/10/21 01:59:30;;;;;;;4.57;2.80;;;;;21.10;97830.00;;;;2082259;28;20213;-54
2021/10/21 02:00:30;;;;;;;2.60;2.40;;;;;21.10;97816.00;;;;2088224;28;20709;-53
2021/10/21 02:01:31;;;;;;;3.50;2.90;;;;;21.10;97855.00;;;;2088093;28;20209;-53
2021/10/21 02:02:31;;;;;;;3.40;2.60;;;;;21.10;97839.00;;;;2088406;28;20216;-54
2021/10/21 02:03:31;;;;;;;3.70;2.30;;;;;21.10;97852.00;;;;2087263;28;20220;-54
2021/10/21 02:04:32;;;;;;;3.77;2.63;;;;;21.10;97855.00;;;;2087419;28;20209;-53
2021/10/21 02:05:32;;;;;;;2.80;2.30;;;;;21.10;97865.00;;;;2084296;28;20578;-53
2021/10/21 02:06:33;;;;;;;2.57;2.03;;;;;21.10;97840.00;;;;2088061;28;20244;-53
2021/10/21 02:07:33;;;;;;;2.63;2.03;;;;;21.10;97834.00;;;;2088270;28;20300;-55
2021/10/21 02:08:33;;;;;;;3.17;2.20;;;;;21.10;97829.00;;;;2084256;28;20713;-53
2021/10/21 02:09:34;;;;;;;4.90;2.47;;;;;21.10;97817.00;;;;2084582;28;20543;-55
2021/10/21 02:10:34;;;;;;;2.70;2.17;;;;;21.10;97825.00;;;;2087300;28;20209;-53
2021/10/21 02:11:34;;;;;;;2.23;2.03;;;;;21.10;97829.00;;;;2082999;28;20210;-53
2021/10/21 02:12:35;;;;;;;6.17;2.47;;;;;21.10;97812.00;;;;2080553;28;20296;-53
2021/10/21 02:13:35;;;;;;;2.43;2.00;;;;;21.10;97819.00;;;;2083215;28;20480;-53
2021/10/21 02:14:35;;;;;;;4.33;2.10;;;;;21.10;97806.00;;;;2080007;28;20232;-53
2021/10/21 02:15:36;;;;;;;3.50;2.50;;;;;21.00;97809.00;;;;2079900;28;20310;-53
2021/10/21 02:16:36;;;;;;;4.57;1.70;;;;;21.00;97804.00;;;;2082162;28;20221;-53
2021/10/21 02:17:37;;;;;;;3.37;1.97;;;;;21.00;97812.00;;;;2084181;28;20204;-54
2021/10/21 02:18:37;;;;;;;3.10;1.92;;;;;21.00;97807.00;;;;2088074;28;20208;-54
2021/10/21 02:19:38;;;;;;;1.90;1.80;;;;;21.00;97805.00;;;;2087840;28;20213;-54
2021/10/21 02:20:38;;;;;;;2.90;1.87;;;;;21.00;97816.00;;;;2083762;28;20201;-53
2021/10/21 02:21:39;;;;;;;5.60;1.80;;;;;21.00;97812.00;;;;2080055;28;20209;-53
2021/10/21 02:22:39;;;;;;;2.40;1.50;;;;;21.00;97810.00;;;;2079885;28;20294;-54
2021/10/21 02:23:40;;;;;;;2.33;1.67;;;;;21.00;97809.00;;;;2079752;28;21060;-53
2021/10/21 02:24:40;;;;;;;2.63;1.70;;;;;21.00;97816.00;;;;2079696;28;20325;-53
2021/10/21 02:25:40;;;;;;;3.20;1.73;;;;;21.00;97821.00;;;;2079819;28;20213;-54
2021/10/21 02:26:41;;;;;;;2.17;1.80;;;;;21.00;97830.00;;;;2079939;28;20305;-53
2021/10/21 02:27:41;;;;;;;2.10;1.90;;;;;21.00;97834.00;;;;2086971;28;20215;-53
2021/10/21 02:28:41;;;;;;;1.70;1.60;;;;;21.00;97805.00;;;;2088083;28;20634;-54
2021/10/21 02:29:42;;;;;;;1.50;1.40;;;;;21.00;97817.00;;;;2080037;28;20296;-54
2021/10/21 02:30:42;;;;;;;2.77;1.40;;;;;21.00;97825.00;;;;2088182;28;20745;-54
2021/10/21 02:31:42;;;;;;;1.80;1.57;;;;;21.00;97831.00;;;;2087961;28;20220;-53
2021/10/21 02:32:44;;;;;;;2.40;1.53;;;;;21.00;97834.00;;;;2087943;28;20666;-53
2021/10/21 02:33:44;;;;;;;2.40;1.63;;;;;21.00;97838.00;;;;2088281;28;20930;-55
2021/10/21 02:34:45;;;;;;;1.83;1.30;;;;;21.00;97817.00;;;;2081296;28;20201;-53
2021/10/21 02:35:46;;;;;;;1.57;1.20;;;;;21.00;97832.00;;;;2079629;28;20205;-54
2021/10/21 02:36:46;;;;;;;1.77;1.37;;;;;21.00;97828.00;;;;2079781;28;20198;-54
2021/10/21 02:37:46;;;;;;;2.33;1.57;;;;;21.00;97833.00;;;;2083587;28;20457;-54
2021/10/21 02:38:47;;;;;;;3.30;1.40;;;;;21.00;97834.00;;;;2079496;28;20210;-55
2021/10/21 02:39:47;;;;;;;2.63;1.50;;;;;21.00;97825.00;;;;2080317;28;20225;-53
2021/10/21 02:40:48;;;;;;;1.70;1.30;;;;;21.00;97845.00;;;;2079945;28;20217;-54
2021/10/21 02:41:48;;;;;;;2.07;1.40;;;;;21.00;97832.00;;;;2079593;28;20916;-54
2021/10/21 02:42:49;;;;;;;2.57;1.20;;;;;21.00;97816.00;;;;2077847;28;20217;-54
2021/10/21 02:43:49;;;;;;;4.03;1.67;;;;;20.90;97833.00;;;;2086640;28;20213;-54
2021/10/21 02:44:49;;;;;;;3.03;1.53;;;;;20.90;97798.00;;;;2087784;28;20261;-53
2021/10/21 02:45:50;;;;;;;2.80;1.40;;;;;20.90;97824.00;;;;2087793;28;20219;-54
2021/10/21 02:46:50;;;;;;;1.47;1.37;;;;;20.90;97814.00;;;;2083534;28;20300;-53
2021/10/21 02:47:51;;;;;;;3.57;1.60;;;;;20.90;97824.00;;;;2079605;28;20210;-54
2021/10/21 02:48:51;;;;;;;1.60;1.20;;;;;21.00;97825.00;;;;2083060;28;20299;-54
2021/10/21 02:49:51;;;;;;;1.83;1.20;;;;;20.90;97822.00;;;;2079534;28;20233;-54
2021/10/21 02:50:52;;;;;;;2.00;1.30;;;;;20.90;97818.00;;;;2079463;28;20704;-54
2021/10/21 02:51:52;;;;;;;1.50;1.13;;;;;20.90;97828.00;;;;2079556;28;20589;-53
2021/10/21 02:52:52;;;;;;;2.13;1.40;;;;;20.90;97840.00;;;;2079633;28;20646;-54
2021/10/21 02:53:53;;;;;;;2.43;1.00;;;;;20.90;97820.00;;;;2079624;28;20206;-54
2021/10/21 02:54:53;;;;;;;2.27;1.23;;;;;20.90;97818.00;;;;2079596;28;20268;-54
2021/10/21 02:55:55;;;;;;;2.60;1.27;;;;;20.90;97812.00;;;;2079598;28;20271;-54
2021/10/21 02:56:55;;;;;;;2.67;1.05;;;;;20.90;97804.00;;;;2084495;28;20212;-53
2021/10/21 02:57:55;;;;;;;2.40;1.13;;;;;20.90;97821.00;;;;2082394;28;20209;-54
2021/10/21 02:58:56;;;;;;;1.80;1.03;;;;;20.90;97816.00;;;;2079052;28;20205;-54
2021/10/21 02:59:56;;;;;;;2.40;1.30;;;;;20.90;97820.00;;;;2079543;28;20217;-54
2021/10/21 03:00:56;;;;;;;1.67;1.10;;;;;20.90;97812.00;;;;2086265;28;20236;-54
2021/10/21 03:01:57;;;;;;;2.57;1.20;;;;;20.90;97806.00;;;;2087815;28;20240;-54
2021/10/21 03:02:57;;;;;;;2.60;0.90;;;;;20.90;97824.00;;;;2087637;28;20574;-54
2021/10/21 03:03:58;;;;;;;1.80;1.00;;;;;20.90;97828.00;;;;2083797;28;20208;-54
2021/10/21 03:04:58;;;;;;;4.70;1.23;;;;;20.90;97828.00;;;;2082425;28;20217;-53
2021/10/21 03:05:59;;;;;;;1.33;1.13;;;;;20.90;97815.00;;;;2080601;28;20452;-54
2021/10/21 03:07:00;;;;;;;1.60;1.20;;;;;20.90;97814.00;;;;2083959;28;20790;-53
2021/10/21 03:08:00;;;;;;;2.00;1.23;;;;;20.90;97826.00;;;;2087696;28;20512;-54
2021/10/21 03:09:00;;;;;;;1.70;1.10;;;;;20.90;97826.00;;;;2085379;28;20221;-54
2021/10/21 03:10:01;;;;;;;3.33;1.00;;;;;20.80;97834.00;;;;2079784;28;20259;-54
2021/10/21 03:11:01;;;;;;;1.87;0.97;;;;;20.90;97803.00;;;;2079021;28;20895;-55
2021/10/21 03:12:02;;;;;;;1.53;0.90;;;;;20.80;97796.00;;;;2083253;28;20217;-54
2021/10/21 03:13:02;;;;;;;2.53;0.97;;;;;20.80;97811.00;;;;2079355;28;20232;-54
2021/10/21 03:14:02;;;;;;;2.20;0.90;;;;;20.80;97819.00;;;;2084183;28;20214;-54
2021/10/21 03:15:03;;;;;;;2.13;0.83;;;;;20.80;97803.00;;;;2081425;28;20209;-55
2021/10/21 03:16:04;;;;;;;3.57;1.10;;;;;20.80;97811.00;;;;2078374;28;20217;-56
2021/10/21 03:17:04;;;;;;;2.80;1.10;;;;;20.80;97823.00;;;;2078736;28;20224;-54
2021/10/21 03:18:05;;;;;;;2.77;1.10;;;;;20.80;97810.00;;;;2079470;28;20239;-54
2021/10/21 03:19:05;;;;;;;1.73;0.90;;;;;20.80;97804.00;;;;2079075;28;20220;-54
2021/10/21 03:20:08;;;;;;;1.47;0.80;;;;;20.80;97792.00;;;;2079272;28;20936;-54
2021/10/21 03:21:08;;;;;;;2.67;0.90;;;;;20.80;97824.00;;;;2083633;28;20857;-55
2021/10/21 03:22:08;;;;;;;2.53;1.20;;;;;20.80;97798.00;;;;2086592;28;20216;-54
2021/10/21 03:23:09;;;;;;;3.87;0.90;;;;;20.80;97811.00;;;;2084533;28;20690;-54
2021/10/21 03:24:09;;;;;;;2.57;1.07;;;;;20.80;97800.00;;;;2087470;28;20220;-53
2021/10/21 03:25:10;;;;;;;2.27;0.97;;;;;20.80;97825.00;;;;2086698;28;20313;-54
2021/10/21 03:26:10;;;;;;;3.90;1.10;;;;;20.80;97807.00;;;;2080956;28;20217;-54
2021/10/21 03:27:11;;;;;;;1.40;0.80;;;;;20.80;97810.00;;;;2079273;28;20460;-53
2021/10/21 03:28:11;;;;;;;2.50;1.03;;;;;20.80;97800.00;;;;2079148;28;20627;-54
2021/10/21 03:29:11;;;;;;;1.97;1.00;;;;;20.80;97812.00;;;;2078961;28;20224;-54
2021/10/21 03:30:12;;;;;;;5.73;1.10;;;;;20.80;97794.00;;;;2083779;28;20271;-54
2021/10/21 03:31:12;;;;;;;2.30;0.90;;;;;20.80;97805.00;;;;2082187;28;20221;-54
2021/10/21 03:32:13;;;;;;;2.20;0.80;;;;;20.80;97789.00;;;;2080833;28;20214;-56
2021/10/21 03:33:13;;;;;;;2.20;0.97;;;;;20.80;97799.00;;;;2087431;28;20767;-53
2021/10/21 03:34:14;;;;;;;3.43;0.87;;;;;20.80;97815.00;;;;2086808;28;20227;-54
2021/10/21 03:35:14;;;;;;;1.63;0.80;;;;;20.80;97820.00;;;;2087106;28;20212;-54
2021/10/21 03:36:14;;;;;;;1.53;0.80;;;;;20.80;97830.00;;;;2079721;28;20268;-54
2021/10/21 03:37:15;;;;;;;2.00;0.97;;;;;20.70;97806.00;;;;2078193;28;20252;-54
2021/10/21 03:38:15;;;;;;;2.27;0.70;;;;;20.80;97812.00;;;;2087012;28;20270;-54
2021/10/21 03:39:15;;;;;;;2.40;0.90;;;;;20.70;97801.00;;;;2083636;28;20236;-53
2021/10/21 03:40:16;;;;;;;1.63;0.93;;;;;20.80;97807.00;;;;2078813;28;20780;-54
2021/10/21 03:41:16;;;;;;;4.17;0.90;;;;;20.70;97790.00;;;;2080322;28;20213;-54
2021/10/21 03:42:17;;;;;;;2.30;0.83;;;;;20.70;97800.00;;;;2082514;28;20228;-53
2021/10/21 03:43:19;;;;;;;2.42;0.80;;;;;20.70;97794.00;;;;2083161;28;20232;-54
2021/10/21 03:44:20;;;;;;;2.88;0.98;;;;;20.70;97781.00;;;;2086023;28;21078;-54
2021/10/21 03:45:20;;;;;;;1.70;0.90;;;;;20.70;97786.00;;;;2078988;28;20275;-53
2021/10/21 03:46:20;;;;;;;3.10;0.80;;;;;20.70;97792.00;;;;2083005;28;20278;-54
2021/10/21 03:47:21;;;;;;;2.20;0.97;;;;;20.70;97775.00;;;;2086931;28;20236;-53
2021/10/21 03:48:21;;;;;;;7.00;0.73;;;;;20.70;97788.00;;;;2086968;28;20314;-54
2021/10/21 03:49:21;;;;;;;1.93;0.63;;;;;20.70;97783.00;;;;2086223;28;20233;-54
2021/10/21 03:50:22;;;;;;;1.80;0.73;;;;;20.70;97765.00;;;;2086137;28;20220;-53
2021/10/21 03:51:22;;;;;;;2.67;0.70;;;;;20.70;97793.00;;;;2086180;28;20282;-53
2021/10/21 03:52:23;;;;;;;2.70;0.90;;;;;20.70;97787.00;;;;2086741;28;20224;-54
2021/10/21 03:53:23;;;;;;;1.67;1.00;;;;;20.70;97782.00;;;;2087018;28;20217;-54
2021/10/21 03:54:23;;;;;;;1.87;0.80;;;;;20.70;97775.00;;;;2086757;28;20233;-54
2021/10/21 03:55:24;;;;;;;2.47;0.97;;;;;20.70;97779.00;;;;2086751;28;20282;-54
2021/10/21 03:56:24;;;;;;;2.30;0.80;;;;;20.70;97766.00;;;;2086937;28;20358;-54
2021/10/21 03:57:24;;;;;;;3.17;0.70;;;;;20.70;97778.00;;;;2086721;28;20248;-54
2021/10/21 03:58:25;;;;;;;3.50;0.83;;;;;20.70;97776.00;;;;2081716;28;20233;-53
2021/10/21 03:59:25;;;;;;;1.57;0.93;;;;;20.70;97758.00;;;;2078690;28;20221;-54
2021/10/21 04:00:26;;;;;;;2.50;0.80;;;;;20.70;97761.00;;;;2085796;28;20697;-54
2021/10/21 04:01:26;;;;;;;1.07;0.70;;;;;20.70;97766.00;;;;2080074;28;20573;-54
2021/10/21 04:02:26;;;;;;;1.53;0.70;;;;;20.70;97777.00;;;;2086539;28;20762;-54
2021/10/21 04:03:27;;;;;;;2.00;1.00;;;;;20.70;97757.00;;;;2087189;28;20232;-54
2021/10/21 04:04:27;;;;;;;2.20;0.90;;;;;20.70;97772.00;;;;2087396;28;20220;-54
2021/10/21 04:05:27;;;;;;;2.40;0.73;;;;;20.70;97768.00;;;;2087316;28;20259;-54
2021/10/21 04:06:28;;;;;;;2.27;1.03;;;;;20.70;97775.00;;;;2087191;28;20224;-53
2021/10/21 04:07:28;;;;;;;3.80;0.87;;;;;20.70;97781.00;;;;2085565;28;20307;-54
2021/10/21 04:08:29;;;;;;;1.70;0.60;;;;;20.70;97750.00;;;;2077935;28;20232;-54
2021/10/21 04:09:29;;;;;;;2.17;0.80;;;;;20.70;97767.00;;;;2079129;28;20590;-54
2021/10/21 04:10:29;;;;;;;2.43;0.90;;;;;20.70;97766.00;;;;2079225;28;20296;-54
2021/10/21 04:11:30;;;;;;;2.47;0.67;;;;;20.70;97765.00;;;;2082304;28;20239;-53
2021/10/21 04:12:31;;;;;;;2.27;0.63;;;;;20.70;97756.00;;;;2083287;28;20350;-53
2021/10/21 04:13:32;;;;;;;1.08;0.63;;;;;20.70;97771.00;;;;2079040;28;20264;-54
2021/10/21 04:14:32;;;;;;;1.67;0.90;;;;;20.70;97755.00;;;;2079150;28;20206;-54
2021/10/21 04:15:32;;;;;;;3.00;0.90;;;;;20.60;97769.00;;;;2080894;28;20221;-54
2021/10/21 04:16:33;;;;;;;1.73;0.80;;;;;20.60;97751.00;;;;2084968;28;20295;-54
2021/10/21 04:17:33;;;;;;;3.37;0.67;;;;;20.60;97752.00;;;;2079138;28;20217;-54
2021/10/21 04:18:33;;;;;;;3.43;0.73;;;;;20.60;97744.00;;;;2086113;28;20274;-54
2021/10/21 04:19:34;;;;;;;2.40;0.80;;;;;20.60;97752.00;;;;2083428;28;20217;-54
2021/10/21 04:20:34;;;;;;;3.17;1.00;;;;;20.60;97743.00;;;;2079113;28;20558;-54
2021/10/21 04:21:34;;;;;;;1.90;0.73;;;;;20.60;97750.00;;;;2083394;28;20271;-53
2021/10/21 04:22:35;;;;;;;2.20;0.60;;;;;20.60;97748.00;;;;2087207;28;20217;-54
2021/10/21 04:23:35;;;;;;;2.13;1.00;;;;;20.60;97746.00;;;;2087386;28;20225;-54
2021/10/21 04:24:35;;;;;;;1.10;0.60;;;;;20.60;97746.00;;;;2086854;28;20215;-54
2021/10/21 04:25:36;;;;;;;1.50;0.77;;;;;20.60;97735.00;;;;2087229;28;20216;-54
2021/10/21 04:26:36;;;;;;;2.73;0.70;;;;;20.60;97749.00;;;;2080173;28;20213;-53
2021/10/21 04:27:37;;;;;;;2.17;0.60;;;;;20.60;97760.00;;;;2082360;28;20577;-54
2021/10/21 04:28:37;;;;;;;2.20;0.80;;;;;20.60;97741.00;;;;2086877;28;20209;-53
2021/10/21 04:29:37;;;;;;;3.20;0.80;;;;;20.60;97745.00;;;;2086765;28;20596;-54
2021/10/21 04:30:38;;;;;;;2.87;0.60;;;;;20.60;97734.00;;;;2079017;28;20300;-54
2021/10/21 04:31:38;;;;;;;2.03;0.70;;;;;20.60;97741.00;;;;2078834;28;20214;-55
2021/10/21 04:32:39;;;;;;;2.57;0.90;;;;;20.60;97742.00;;;;2080337;28;20293;-54
2021/10/21 04:33:39;;;;;;;2.63;0.70;;;;;20.60;97758.00;;;;2085183;28;20251;-54
2021/10/21 04:34:39;;;;;;;1.57;0.50;;;;;20.60;97750.00;;;;2078642;28;20682;-53
2021/10/21 04:35:40;;;;;;;1.50;0.83;;;;;20.60;97741.00;;;;2085896;28;20217;-53
2021/10/21 04:36:40;;;;;;;2.97;0.60;;;;;20.60;97758.00;;;;2083945;28;20225;-54
2021/10/21 04:37:40;;;;;;;1.53;0.53;;;;;20.50;97756.00;;;;2078926;28;20248;-54
2021/10/21 04:38:41;;;;;;;2.20;0.63;;;;;20.60;97744.00;;;;2078834;28;20214;-53
2021/10/21 04:39:41;;;;;;;2.13;0.90;;;;;20.60;97741.00;;;;2078205;28;20226;-54
2021/10/21 04:40:42;;;;;;;2.00;0.70;;;;;20.60;97743.00;;;;2079550;28;20206;-54
2021/10/21 04:41:42;;;;;;;4.07;0.83;;;;;20.60;97742.00;;;;2085351;28;20267;-54
2021/10/21 04:42:42;;;;;;;2.13;0.70;;;;;20.60;97699.00;;;;2078878;28;20214;-53
2021/10/21 04:43:43;;;;;;;2.63;0.67;;;;;20.60;97721.00;;;;2085322;28;20219;-54
2021/10/21 04:44:43;;;;;;;1.87;0.50;;;;;20.60;97714.00;;;;2079663;28;20212;-54
2021/10/21 04:45:44;;;;;;;2.50;0.67;;;;;20.60;97728.00;;;;2078540;28;20249;-54
2021/10/21 04:46:44;;;;;;;2.57;0.70;;;;;20.60;97740.00;;;;2086422;28;20208;-54
2021/10/21 04:47:44;;;;;;;2.50;0.60;;;;;20.60;97739.00;;;;2086472;28;20208;-54
2021/10/21 04:48:45;;;;;;;2.13;0.70;;;;;20.60;97734.00;;;;2078354;28;20213;-53
2021/10/21 04:49:45;;;;;;;3.00;0.90;;;;;20.50;97734.00;;;;2080231;28;20701;-54
2021/10/21 04:50:45;;;;;;;2.70;0.60;;;;;20.50;97734.00;;;;2080520;28;20575;-53
2021/10/21 04:51:46;;;;;;;4.03;0.80;;;;;20.50;97741.00;;;;2080227;28;20256;-54
2021/10/21 04:52:46;;;;;;;2.83;0.60;;;;;20.60;97746.00;;;;2080415;28;20582;-54
2021/10/21 04:53:47;;;;;;;1.13;0.60;;;;;20.60;97753.00;;;;2080548;28;20221;-54
2021/10/21 04:54:47;;;;;;;2.43;0.70;;;;;20.60;97711.00;;;;2088271;28;20213;-54
2021/10/21 04:55:47;;;;;;;1.17;0.60;;;;;20.60;97731.00;;;;2087865;28;20682;-53
2021/10/21 04:56:48;;;;;;;1.93;0.70;;;;;20.70;97767.00;;;;2087990;28;20227;-54
2021/10/21 04:57:48;;;;;;;3.50;0.60;;;;;20.70;97737.00;;;;2087409;28;20691;-54
2021/10/21 04:58:49;;;;;;;6.03;0.60;;;;;20.70;97706.00;;;;2078871;28;20297;-56
2021/10/21 04:59:49;;;;;;;2.60;0.50;;;;;20.70;97738.00;;;;2079692;28;20216;-57
2021/10/21 05:00:50;;;;;;;1.40;0.47;;;;;20.70;97747.00;;;;2079598;28;20213;-57
2021/10/21 05:01:50;;;;;;;1.50;0.53;;;;;20.70;97746.00;;;;2076077;28;20218;-54
2021/10/21 05:02:50;;;;;;;1.67;0.60;;;;;20.70;97726.00;;;;2090095;28;20577;-53